sensor_id;sensor_type;location;lat;lon;timestamp;pressure;altitude;pressure_sealevel;temperature;humidity
42289;BME280;30230;47.520;19.016;2022-12-17T00:00:20;98464.50;;;1.12;100.00
42289;BME280;30230;47.520;19.016;2022-12-17T00:02:39;98445.41;;;1.09;100.00
42289;BME280;30230;47.520;19.016;2022-12-17T00:04:58;98445.38;;;1.00;100.00
42289;BME280;30230;47.520;19.016;2022-12-17T00:07:18;98432.72;;;0.94;100.00
42289;BME280;30230;47.520;19.016;2022-12-17T00:09:37;98457.16;;;0.90;100.00
42289;BME280;30230;47.520;19.016;2022-12-17T00:11:56;98452.78;;;0.81;100.00
42289;BME280;30230;47.520;19.016;2022-12-17T00:14:15;98438.97;;;0.77;100.00
42289;BME280;30230;47.520;19.016;2022-12-17T00:16:34;98424.56;;;0.80;100.00
42289;BME280;30230;47.520;19.016;2022-12-17T00:18:53;98439.72;;;0.95;100.00
42289;BME280;30230;47.520;19.016;2022-12-17T00:21:12;98430.84;;;0.70;100.00
42289;BME280;30230;47.520;19.016;2022-12-17T00:23:30;98428.56;;;0.84;100.00
42289;BME280;30230;47.520;19.016;2022-12-17T00:25:54;98440.03;;;0.84;100.00
42289;BME280;30230;47.520;19.016;2022-12-17T00:28:14;98433.28;;;0.56;100.00
42289;BME280;30230;47.520;19.016;2022-12-17T00:30:33;98441.09;;;0.57;100.00
42289;BME280;30230;47.520;19.016;2022-12-17T00:32:52;98437.06;;;0.45;100.00
42289;BME280;30230;47.520;19.016;2022-12-17T00:35:11;98422.78;;;0.46;100.00
42289;BME280;30230;47.520;19.016;2022-12-17T00:37:30;98429.81;;;0.63;100.00
42289;BME280;30230;47.520;19.016;2022-12-17T00:39:48;98417.19;;;0.65;100.00
42289;BME280;30230;47.520;19.016;2022-12-17T00:42:07;98410.66;;;0.51;100.00
42289;BME280;30230;47.520;19.016;2022-12-17T00:44:26;98410.19;;;0.56;100.00
42289;BME280;30230;47.520;19.016;2022-12-17T00:46:45;98407.13;;;0.35;100.00
42289;BME280;30230;47.520;19.016;2022-12-17T00:49:04;98409.31;;;0.39;100.00
42289;BME280;30230;47.520;19.016;2022-12-17T00:51:23;98414.94;;;0.36;100.00
42289;BME280;30230;47.520;19.016;2022-12-17T00:53:42;98420.75;;;0.32;100.00
42289;BME280;30230;47.520;19.016;2022-12-17T00:56:01;98406.78;;;0.30;100.00
42289;BME280;30230;47.520;19.016;2022-12-17T00:58:20;98444.78;;;0.30;100.00
42289;BME280;30230;47.520;19.016;2022-12-17T01:00:40;98451.63;;;0.33;100.00
42289;BME280;30230;47.520;19.016;2022-12-17T01:03:05;98464.94;;;0.15;100.00
42289;BME280;30230;47.520;19.016;2022-12-17T01:05:25;98482.25;;;0.19;100.00
42289;BME280;30230;47.520;19.016;2022-12-17T01:07:44;98486.06;;;0.16;100.00
42289;BME280;30230;47.520;19.016;2022-12-17T01:10:03;98485.94;;;0.26;100.00
42289;BME280;30230;47.520;19.016;2022-12-17T01:12:22;98493.47;;;0.39;100.00
42289;BME280;30230;47.520;19.016;2022-12-17T01:14:41;98499.25;;;0.34;100.00
42289;BME280;30230;47.520;19.016;2022-12-17T01:17:00;98532.06;;;0.51;100.00
42289;BME280;30230;47.520;19.016;2022-12-17T01:19:19;98543.03;;;0.56;100.00
42289;BME280;30230;47.520;19.016;2022-12-17T01:21:38;98533.41;;;0.55;100.00
42289;BME280;30230;47.520;19.016;2022-12-17T01:23:57;98528.91;;;0.47;100.00
42289;BME280;30230;47.520;19.016;2022-12-17T01:26:16;98525.25;;;0.48;100.00
42289;BME280;30230;47.520;19.016;2022-12-17T01:28:35;98534.94;;;0.58;100.00
42289;BME280;30230;47.520;19.016;2022-12-17T01:30:57;98541.09;;;0.66;100.00
42289;BME280;30230;47.520;19.016;2022-12-17T01:33:16;98531.31;;;0.67;100.00
42289;BME280;30230;47.520;19.016;2022-12-17T01:35:35;98542.88;;;0.84;100.00
42289;BME280;30230;47.520;19.016;2022-12-17T01:37:54;98553.44;;;0.75;100.00
42289;BME280;30230;47.520;19.016;2022-12-17T01:40:14;98543.47;;;0.69;100.00
42289;BME280;30230;47.520;19.016;2022-12-17T01:42:41;98554.75;;;0.71;100.00
42289;BME280;30230;47.520;19.016;2022-12-17T01:45:01;98541.47;;;0.71;100.00
42289;BME280;30230;47.520;19.016;2022-12-17T01:47:21;98513.50;;;0.59;100.00
42289;BME280;30230;47.520;19.016;2022-12-17T01:49:39;98553.63;;;0.74;100.00
42289;BME280;30230;47.520;19.016;2022-12-17T01:51:59;98552.44;;;0.68;100.00
42289;BME280;30230;47.520;19.016;2022-12-17T01:54:18;98547.75;;;0.62;100.00
42289;BME280;30230;47.520;19.016;2022-12-17T01:56:40;98556.22;;;0.66;100.00
42289;BME280;30230;47.520;19.016;2022-12-17T01:59:02;98554.13;;;0.77;100.00
42289;BME280;30230;47.520;19.016;2022-12-17T02:01:21;98559.75;;;0.74;100.00
42289;BME280;30230;47.520;19.016;2022-12-17T02:03:40;98552.56;;;0.67;100.00
42289;BME280;30230;47.520;19.016;2022-12-17T02:11:07;98555.03;;;0.60;100.00
42289;BME280;30230;47.520;19.016;2022-12-17T02:13:38;98574.69;;;0.67;100.00
42289;BME280;30230;47.520;19.016;2022-12-17T02:16:24;98568.00;;;0.63;100.00
42289;BME280;30230;47.520;19.016;2022-12-17T02:18:56;98575.00;;;0.64;100.00
42289;BME280;30230;47.520;19.016;2022-12-17T02:21:18;98568.38;;;0.68;100.00
42289;BME280;30230;47.520;19.016;2022-12-17T02:26:06;98565.66;;;0.60;100.00
42289;BME280;30230;47.520;19.016;2022-12-17T02:28:28;98555.19;;;0.59;100.00
42289;BME280;30230;47.520;19.016;2022-12-17T02:30:48;98550.41;;;0.62;100.00
42289;BME280;30230;47.520;19.016;2022-12-17T02:33:29;98561.47;;;0.84;100.00
42289;BME280;30230;47.520;19.016;2022-12-17T02:35:57;98550.78;;;0.75;100.00
42289;BME280;30230;47.520;19.016;2022-12-17T02:38:23;98554.44;;;0.74;100.00
42289;BME280;30230;47.520;19.016;2022-12-17T02:40:43;98550.41;;;0.62;100.00
42289;BME280;30230;47.520;19.016;2022-12-17T02:43:05;98566.03;;;0.65;100.00
42289;BME280;30230;47.520;19.016;2022-12-17T02:45:25;98569.94;;;0.53;100.00
42289;BME280;30230;47.520;19.016;2022-12-17T02:47:44;98570.69;;;0.63;100.00
42289;BME280;30230;47.520;19.016;2022-12-17T02:50:04;98562.69;;;0.63;100.00
42289;BME280;30230;47.520;19.016;2022-12-17T02:52:23;98575.75;;;0.31;100.00
42289;BME280;30230;47.520;19.016;2022-12-17T02:54:44;98590.31;;;0.44;100.00
42289;BME280;30230;47.520;19.016;2022-12-17T02:57:03;98583.44;;;0.34;100.00
42289;BME280;30230;47.520;19.016;2022-12-17T02:59:22;98586.44;;;0.13;100.00
42289;BME280;30230;47.520;19.016;2022-12-17T03:01:41;98582.38;;;0.01;100.00
42289;BME280;30230;47.520;19.016;2022-12-17T03:03:59;98601.31;;;0.06;100.00
42289;BME280;30230;47.520;19.016;2022-12-17T03:06:18;98600.25;;;0.16;100.00
42289;BME280;30230;47.520;19.016;2022-12-17T03:08:37;98597.47;;;0.00;100.00
42289;BME280;30230;47.520;19.016;2022-12-17T03:10:56;98623.16;;;0.17;100.00
42289;BME280;30230;47.520;19.016;2022-12-17T03:13:26;98597.91;;;-0.05;100.00
42289;BME280;30230;47.520;19.016;2022-12-17T03:15:45;98615.09;;;0.09;100.00
42289;BME280;30230;47.520;19.016;2022-12-17T03:18:04;98633.41;;;0.12;100.00
42289;BME280;30230;47.520;19.016;2022-12-17T03:20:23;98630.25;;;0.35;100.00
42289;BME280;30230;47.520;19.016;2022-12-17T03:22:41;98596.00;;;0.06;100.00
42289;BME280;30230;47.520;19.016;2022-12-17T03:25:00;98600.03;;;-0.08;100.00
42289;BME280;30230;47.520;19.016;2022-12-17T03:27:19;98641.81;;;0.08;100.00
42289;BME280;30230;47.520;19.016;2022-12-17T03:29:38;98624.28;;;0.15;100.00
42289;BME280;30230;47.520;19.016;2022-12-17T03:31:57;98616.47;;;0.13;100.00
42289;BME280;30230;47.520;19.016;2022-12-17T03:34:16;98628.13;;;0.20;100.00
42289;BME280;30230;47.520;19.016;2022-12-17T03:36:35;98636.72;;;0.14;100.00
42289;BME280;30230;47.520;19.016;2022-12-17T03:38:54;98643.47;;;0.09;100.00
42289;BME280;30230;47.520;19.016;2022-12-17T03:41:13;98647.66;;;0.11;100.00
42289;BME280;30230;47.520;19.016;2022-12-17T03:43:32;98637.25;;;0.18;100.00
42289;BME280;30230;47.520;19.016;2022-12-17T03:45:54;98646.72;;;0.20;100.00
42289;BME280;30230;47.520;19.016;2022-12-17T03:48:14;98639.38;;;0.14;100.00
42289;BME280;30230;47.520;19.016;2022-12-17T03:50:33;98648.56;;;0.20;100.00
42289;BME280;30230;47.520;19.016;2022-12-17T03:52:52;98652.03;;;0.20;100.00
42289;BME280;30230;47.520;19.016;2022-12-17T03:55:11;98624.47;;;-0.05;100.00
42289;BME280;30230;47.520;19.016;2022-12-17T03:57:30;98627.00;;;0.05;100.00
42289;BME280;30230;47.520;19.016;2022-12-17T03:59:49;98639.47;;;0.22;100.00
42289;BME280;30230;47.520;19.016;2022-12-17T04:02:08;98633.09;;;-0.03;100.00
42289;BME280;30230;47.520;19.016;2022-12-17T04:04:27;98649.34;;;0.12;100.00
42289;BME280;30230;47.520;19.016;2022-12-17T04:06:45;98645.06;;;0.19;100.00
42289;BME280;30230;47.520;19.016;2022-12-17T04:09:04;98627.50;;;0.01;100.00
42289;BME280;30230;47.520;19.016;2022-12-17T04:11:23;98630.59;;;-0.04;100.00
42289;BME280;30230;47.520;19.016;2022-12-17T04:13:42;98644.63;;;0.06;100.00
42289;BME280;30230;47.520;19.016;2022-12-17T04:16:01;98615.81;;;-0.24;100.00
42289;BME280;30230;47.520;19.016;2022-12-17T04:18:20;98629.81;;;0.04;100.00
42289;BME280;30230;47.520;19.016;2022-12-17T04:20:39;98636.38;;;-0.09;100.00
42289;BME280;30230;47.520;19.016;2022-12-17T04:23:15;98631.22;;;-0.10;100.00
42289;BME280;30230;47.520;19.016;2022-12-17T04:25:34;98621.72;;;-0.13;100.00
42289;BME280;30230;47.520;19.016;2022-12-17T04:27:52;98632.50;;;-0.14;100.00
42289;BME280;30230;47.520;19.016;2022-12-17T04:30:12;98631.97;;;-0.18;100.00
42289;BME280;30230;47.520;19.016;2022-12-17T04:32:31;98635.28;;;-0.34;100.00
42289;BME280;30230;47.520;19.016;2022-12-17T04:34:49;98640.44;;;-0.32;100.00
42289;BME280;30230;47.520;19.016;2022-12-17T04:37:08;98655.63;;;-0.07;100.00
42289;BME280;30230;47.520;19.016;2022-12-17T04:39:27;98664.31;;;-0.32;100.00
42289;BME280;30230;47.520;19.016;2022-12-17T04:41:46;98645.63;;;-0.58;100.00
42289;BME280;30230;47.520;19.016;2022-12-17T04:44:05;98673.31;;;-0.43;100.00
42289;BME280;30230;47.520;19.016;2022-12-17T04:46:24;98679.84;;;-0.65;100.00
42289;BME280;30230;47.520;19.016;2022-12-17T04:48:42;98665.66;;;-0.73;100.00
42289;BME280;30230;47.520;19.016;2022-12-17T04:51:01;98672.34;;;-0.69;100.00
42289;BME280;30230;47.520;19.016;2022-12-17T04:53:20;98686.22;;;-0.58;100.00
42289;BME280;30230;47.520;19.016;2022-12-17T04:55:39;98657.63;;;-0.82;100.00
42289;BME280;30230;47.520;19.016;2022-12-17T04:58:03;98679.69;;;-0.63;100.00
42289;BME280;30230;47.520;19.016;2022-12-17T05:00:22;98685.00;;;-0.63;100.00
42289;BME280;30230;47.520;19.016;2022-12-17T05:02:40;98679.91;;;-0.74;100.00
42289;BME280;30230;47.520;19.016;2022-12-17T05:04:59;98685.78;;;-0.81;100.00
42289;BME280;30230;47.520;19.016;2022-12-17T05:07:18;98700.03;;;-0.54;100.00
42289;BME280;30230;47.520;19.016;2022-12-17T05:09:45;98701.63;;;-0.61;100.00
42289;BME280;30230;47.520;19.016;2022-12-17T05:12:04;98711.09;;;-0.59;100.00
42289;BME280;30230;47.520;19.016;2022-12-17T05:14:23;98709.81;;;-0.55;100.00
42289;BME280;30230;47.520;19.016;2022-12-17T05:16:42;98688.78;;;-0.38;100.00
42289;BME280;30230;47.520;19.016;2022-12-17T05:19:01;98701.47;;;-0.60;100.00
42289;BME280;30230;47.520;19.016;2022-12-17T05:21:20;98711.22;;;-0.50;99.53
42289;BME280;30230;47.520;19.016;2022-12-17T05:23:40;98707.66;;;-0.69;100.00
42289;BME280;30230;47.520;19.016;2022-12-17T05:26:08;98712.97;;;-0.79;100.00
42289;BME280;30230;47.520;19.016;2022-12-17T05:28:31;98716.94;;;-0.83;99.80
42289;BME280;30230;47.520;19.016;2022-12-17T05:30:51;98712.88;;;-0.87;100.00
42289;BME280;30230;47.520;19.016;2022-12-17T05:33:10;98721.13;;;-0.90;100.00
42289;BME280;30230;47.520;19.016;2022-12-17T05:35:29;98701.59;;;-0.98;100.00
42289;BME280;30230;47.520;19.016;2022-12-17T05:37:48;98730.34;;;-0.94;100.00
42289;BME280;30230;47.520;19.016;2022-12-17T05:40:07;98726.47;;;-1.09;100.00
42289;BME280;30230;47.520;19.016;2022-12-17T05:42:27;98754.06;;;-0.83;100.00
42289;BME280;30230;47.520;19.016;2022-12-17T05:44:46;98754.56;;;-0.79;100.00
42289;BME280;30230;47.520;19.016;2022-12-17T05:47:05;98763.66;;;-0.82;100.00
42289;BME280;30230;47.520;19.016;2022-12-17T05:49:28;98763.38;;;-0.79;100.00
42289;BME280;30230;47.520;19.016;2022-12-17T05:51:47;98754.72;;;-0.81;99.06
42289;BME280;30230;47.520;19.016;2022-12-17T05:54:06;98772.88;;;-0.86;98.52
42289;BME280;30230;47.520;19.016;2022-12-17T05:56:25;98752.72;;;-1.16;99.01
42289;BME280;30230;47.520;19.016;2022-12-17T05:58:44;98777.22;;;-1.04;99.88
42289;BME280;30230;47.520;19.016;2022-12-17T06:01:04;98797.16;;;-0.81;99.97
42289;BME280;30230;47.520;19.016;2022-12-17T06:03:23;98782.00;;;-0.98;97.43
42289;BME280;30230;47.520;19.016;2022-12-17T06:05:42;98792.84;;;-0.91;98.15
42289;BME280;30230;47.520;19.016;2022-12-17T06:08:05;98801.38;;;-0.88;98.49
42289;BME280;30230;47.520;19.016;2022-12-17T06:10:25;98813.63;;;-0.87;97.77
42289;BME280;30230;47.520;19.016;2022-12-17T06:12:54;98811.97;;;-0.88;98.07
42289;BME280;30230;47.520;19.016;2022-12-17T06:15:14;98806.94;;;-0.91;97.99
42289;BME280;30230;47.520;19.016;2022-12-17T06:17:32;98803.44;;;-0.82;98.65
42289;BME280;30230;47.520;19.016;2022-12-17T06:19:51;98791.63;;;-0.97;97.70
42289;BME280;30230;47.520;19.016;2022-12-17T06:22:10;98803.47;;;-1.01;99.47
42289;BME280;30230;47.520;19.016;2022-12-17T06:24:29;98789.25;;;-1.10;98.90
42289;BME280;30230;47.520;19.016;2022-12-17T06:26:48;98828.28;;;-0.83;99.89
42289;BME280;30230;47.520;19.016;2022-12-17T06:29:07;98837.19;;;-0.84;99.60
42289;BME280;30230;47.520;19.016;2022-12-17T06:31:27;98845.03;;;-0.92;97.79
42289;BME280;30230;47.520;19.016;2022-12-17T06:33:46;98850.59;;;-0.85;97.01
42289;BME280;30230;47.520;19.016;2022-12-17T06:36:05;98840.16;;;-1.06;97.38
42289;BME280;30230;47.520;19.016;2022-12-17T06:38:23;98825.66;;;-1.02;96.96
42289;BME280;30230;47.520;19.016;2022-12-17T06:40:42;98838.09;;;-1.02;97.65
42289;BME280;30230;47.520;19.016;2022-12-17T06:43:01;98837.78;;;-0.99;98.29
42289;BME280;30230;47.520;19.016;2022-12-17T06:45:20;98846.97;;;-1.03;97.49
42289;BME280;30230;47.520;19.016;2022-12-17T06:47:39;98834.19;;;-1.08;95.56
42289;BME280;30230;47.520;19.016;2022-12-17T06:49:58;98848.53;;;-1.20;97.98
42289;BME280;30230;47.520;19.016;2022-12-17T06:52:17;98857.16;;;-0.99;94.90
42289;BME280;30230;47.520;19.016;2022-12-17T06:54:36;98879.34;;;-1.10;95.79
42289;BME280;30230;47.520;19.016;2022-12-17T06:56:55;98852.84;;;-1.00;95.98
42289;BME280;30230;47.520;19.016;2022-12-17T06:59:14;98868.91;;;-1.01;94.01
42289;BME280;30230;47.520;19.016;2022-12-17T07:01:33;98846.44;;;-1.17;93.10
42289;BME280;30230;47.520;19.016;2022-12-17T07:03:51;98859.28;;;-1.12;94.18
42289;BME280;30230;47.520;19.016;2022-12-17T07:06:10;98866.66;;;-0.96;92.88
42289;BME280;30230;47.520;19.016;2022-12-17T07:08:30;98873.94;;;-1.08;93.62
42289;BME280;30230;47.520;19.016;2022-12-17T07:10:49;98874.34;;;-1.22;94.34
42289;BME280;30230;47.520;19.016;2022-12-17T07:13:08;98883.53;;;-1.17;94.30
42289;BME280;30230;47.520;19.016;2022-12-17T07:15:27;98878.25;;;-1.17;93.46
42289;BME280;30230;47.520;19.016;2022-12-17T07:17:54;98867.63;;;-1.26;94.52
42289;BME280;30230;47.520;19.016;2022-12-17T07:20:13;98891.50;;;-1.07;94.31
42289;BME280;30230;47.520;19.016;2022-12-17T07:22:32;98900.84;;;-1.03;94.02
42289;BME280;30230;47.520;19.016;2022-12-17T07:24:51;98896.78;;;-1.17;93.17
42289;BME280;30230;47.520;19.016;2022-12-17T07:27:10;98902.94;;;-1.16;93.86
42289;BME280;30230;47.520;19.016;2022-12-17T07:29:29;98898.75;;;-1.09;93.64
42289;BME280;30230;47.520;19.016;2022-12-17T07:31:47;98901.13;;;-1.06;93.42
42289;BME280;30230;47.520;19.016;2022-12-17T07:34:06;98912.00;;;-0.90;93.28
42289;BME280;30230;47.520;19.016;2022-12-17T07:36:42;98918.72;;;-0.86;93.17
42289;BME280;30230;47.520;19.016;2022-12-17T07:39:01;98923.44;;;-0.80;94.03
42289;BME280;30230;47.520;19.016;2022-12-17T07:41:20;98933.38;;;-0.82;93.93
42289;BME280;30230;47.520;19.016;2022-12-17T07:43:38;98939.66;;;-0.83;90.95
42289;BME280;30230;47.520;19.016;2022-12-17T07:45:59;98939.22;;;-0.78;90.40
42289;BME280;30230;47.520;19.016;2022-12-17T07:48:18;98930.56;;;-0.80;92.14
42289;BME280;30230;47.520;19.016;2022-12-17T07:50:37;98951.63;;;-0.79;90.26
42289;BME280;30230;47.520;19.016;2022-12-17T07:53:00;98952.19;;;-0.85;90.53
42289;BME280;30230;47.520;19.016;2022-12-17T07:55:20;98931.56;;;-0.81;89.20
42289;BME280;30230;47.520;19.016;2022-12-17T07:57:39;98947.47;;;-0.81;90.26
42289;BME280;30230;47.520;19.016;2022-12-17T07:59:58;98947.59;;;-0.73;90.20
42289;BME280;30230;47.520;19.016;2022-12-17T08:02:17;98959.47;;;-0.77;90.29
42289;BME280;30230;47.520;19.016;2022-12-17T08:04:36;98956.09;;;-0.60;93.25
42289;BME280;30230;47.520;19.016;2022-12-17T08:06:55;98951.50;;;-0.67;89.77
42289;BME280;30230;47.520;19.016;2022-12-17T08:09:14;98938.66;;;-0.82;89.05
42289;BME280;30230;47.520;19.016;2022-12-17T08:11:32;98960.84;;;-0.54;89.07
42289;BME280;30230;47.520;19.016;2022-12-17T08:13:51;98956.53;;;-0.64;88.66
42289;BME280;30230;47.520;19.016;2022-12-17T08:16:10;98959.59;;;-0.79;88.99
42289;BME280;30230;47.520;19.016;2022-12-17T08:18:29;98973.84;;;-0.70;88.33
42289;BME280;30230;47.520;19.016;2022-12-17T08:20:49;98982.91;;;-0.63;87.88
42289;BME280;30230;47.520;19.016;2022-12-17T08:23:08;98966.03;;;-0.71;87.99
42289;BME280;30230;47.520;19.016;2022-12-17T08:25:27;98959.19;;;-0.74;89.03
42289;BME280;30230;47.520;19.016;2022-12-17T08:27:46;98986.28;;;-0.61;86.75
42289;BME280;30230;47.520;19.016;2022-12-17T08:30:06;98993.81;;;-0.66;87.51
42289;BME280;30230;47.520;19.016;2022-12-17T08:32:24;98990.47;;;-0.77;87.47
42289;BME280;30230;47.520;19.016;2022-12-17T08:34:43;98988.50;;;-0.75;88.62
42289;BME280;30230;47.520;19.016;2022-12-17T08:37:02;98986.84;;;-0.67;89.05
42289;BME280;30230;47.520;19.016;2022-12-17T08:39:21;99004.13;;;-0.53;88.24
42289;BME280;30230;47.520;19.016;2022-12-17T08:41:40;99006.78;;;-0.63;87.65
42289;BME280;30230;47.520;19.016;2022-12-17T08:43:59;99005.78;;;-0.52;88.00
42289;BME280;30230;47.520;19.016;2022-12-17T08:46:18;99017.97;;;-0.40;87.33
42289;BME280;30230;47.520;19.016;2022-12-17T08:48:37;99021.16;;;-0.36;87.84
42289;BME280;30230;47.520;19.016;2022-12-17T08:50:56;99042.25;;;-0.35;87.22
42289;BME280;30230;47.520;19.016;2022-12-17T08:53:15;99030.38;;;-0.60;86.91
42289;BME280;30230;47.520;19.016;2022-12-17T08:55:34;99031.75;;;-0.36;87.15
42289;BME280;30230;47.520;19.016;2022-12-17T08:57:57;99031.22;;;-0.20;86.82
42289;BME280;30230;47.520;19.016;2022-12-17T09:00:16;99025.22;;;-0.42;87.07
42289;BME280;30230;47.520;19.016;2022-12-17T09:02:35;99032.88;;;-0.58;87.58
42289;BME280;30230;47.520;19.016;2022-12-17T09:04:54;99043.75;;;-0.81;87.22
42289;BME280;30230;47.520;19.016;2022-12-17T09:07:13;99038.56;;;-0.92;88.72
42289;BME280;30230;47.520;19.016;2022-12-17T09:09:34;99035.94;;;-0.92;89.10
42289;BME280;30230;47.520;19.016;2022-12-17T09:11:52;99058.84;;;-0.81;89.79
42289;BME280;30230;47.520;19.016;2022-12-17T09:14:11;99042.97;;;-0.62;89.20
42289;BME280;30230;47.520;19.016;2022-12-17T09:16:30;99025.63;;;-0.75;88.59
42289;BME280;30230;47.520;19.016;2022-12-17T09:18:49;99039.28;;;-0.80;88.33
42289;BME280;30230;47.520;19.016;2022-12-17T09:21:08;99036.63;;;-0.90;89.11
42289;BME280;30230;47.520;19.016;2022-12-17T09:23:27;99023.81;;;-0.65;87.87
42289;BME280;30230;47.520;19.016;2022-12-17T09:25:53;99043.78;;;-0.61;87.81
42289;BME280;30230;47.520;19.016;2022-12-17T09:28:12;99045.59;;;-0.71;88.16
42289;BME280;30230;47.520;19.016;2022-12-17T09:30:31;99054.38;;;-0.71;89.73
42289;BME280;30230;47.520;19.016;2022-12-17T09:32:50;99038.75;;;-0.55;88.82
42289;BME280;30230;47.520;19.016;2022-12-17T09:35:08;99039.59;;;-0.54;88.22
42289;BME280;30230;47.520;19.016;2022-12-17T09:37:27;99040.03;;;-0.49;86.90
42289;BME280;30230;47.520;19.016;2022-12-17T09:39:46;99034.44;;;-0.46;87.09
42289;BME280;30230;47.520;19.016;2022-12-17T09:49:46;99067.13;;;-0.36;86.40
42289;BME280;30230;47.520;19.016;2022-12-17T09:54:50;99076.06;;;-0.17;86.38
42289;BME280;30230;47.520;19.016;2022-12-17T09:57:12;99077.72;;;-0.16;82.94
42289;BME280;30230;47.520;19.016;2022-12-17T09:59:33;99078.59;;;-0.25;82.38
42289;BME280;30230;47.520;19.016;2022-12-17T10:01:53;99089.06;;;-0.24;84.03
42289;BME280;30230;47.520;19.016;2022-12-17T10:04:20;99094.94;;;-0.20;83.81
42289;BME280;30230;47.520;19.016;2022-12-17T10:06:43;99080.06;;;-0.52;84.44
42289;BME280;30230;47.520;19.016;2022-12-17T10:09:12;99089.84;;;-0.72;87.33
42289;BME280;30230;47.520;19.016;2022-12-17T10:11:34;99090.69;;;-0.52;86.15
42289;BME280;30230;47.520;19.016;2022-12-17T10:13:53;99112.91;;;-0.43;84.38
42289;BME280;30230;47.520;19.016;2022-12-17T10:18:48;99099.78;;;-0.45;83.98
42289;BME280;30230;47.520;19.016;2022-12-17T10:21:09;99103.00;;;-0.32;85.55
42289;BME280;30230;47.520;19.016;2022-12-17T10:23:30;99108.88;;;-0.28;84.41
42289;BME280;30230;47.520;19.016;2022-12-17T10:25:52;99101.88;;;-0.39;83.95
42289;BME280;30230;47.520;19.016;2022-12-17T10:28:16;99128.69;;;-0.42;85.02
42289;BME280;30230;47.520;19.016;2022-12-17T10:30:36;99119.22;;;-0.35;85.54
42289;BME280;30230;47.520;19.016;2022-12-17T10:32:55;99109.16;;;-0.31;85.09
42289;BME280;30230;47.520;19.016;2022-12-17T10:35:21;99106.06;;;-0.36;83.17
42289;BME280;30230;47.520;19.016;2022-12-17T10:37:40;99113.50;;;-0.30;84.22
42289;BME280;30230;47.520;19.016;2022-12-17T10:40:19;99118.63;;;-0.48;83.34
42289;BME280;30230;47.520;19.016;2022-12-17T10:42:40;99144.38;;;-0.19;84.07
42289;BME280;30230;47.520;19.016;2022-12-17T10:44:59;99148.13;;;-0.32;83.63
42289;BME280;30230;47.520;19.016;2022-12-17T10:47:22;99170.09;;;-0.01;89.66
42289;BME280;30230;47.520;19.016;2022-12-17T10:49:42;99171.78;;;-0.09;83.45
42289;BME280;30230;47.520;19.016;2022-12-17T10:52:05;99144.66;;;-0.22;84.22
42289;BME280;30230;47.520;19.016;2022-12-17T10:54:27;99175.81;;;-0.15;82.52
42289;BME280;30230;47.520;19.016;2022-12-17T10:56:51;99184.06;;;-0.18;82.62
42289;BME280;30230;47.520;19.016;2022-12-17T10:59:13;99192.31;;;-0.02;83.02
42289;BME280;30230;47.520;19.016;2022-12-17T11:01:42;99182.84;;;0.06;83.21
42289;BME280;30230;47.520;19.016;2022-12-17T11:04:01;99210.78;;;0.10;82.54
42289;BME280;30230;47.520;19.016;2022-12-17T11:06:29;99212.88;;;0.06;82.51
42289;BME280;30230;47.520;19.016;2022-12-17T11:08:48;99224.47;;;0.05;82.88
42289;BME280;30230;47.520;19.016;2022-12-17T11:11:10;99229.66;;;0.16;81.56
42289;BME280;30230;47.520;19.016;2022-12-17T11:13:32;99223.78;;;0.13;82.75
42289;BME280;30230;47.520;19.016;2022-12-17T11:15:55;99221.28;;;0.11;83.60
42289;BME280;30230;47.520;19.016;2022-12-17T11:18:43;99227.41;;;0.12;82.30
42289;BME280;30230;47.520;19.016;2022-12-17T11:21:11;99233.88;;;0.48;81.40
42289;BME280;30230;47.520;19.016;2022-12-17T11:23:31;99224.06;;;0.29;80.90
42289;BME280;30230;47.520;19.016;2022-12-17T11:26:11;99250.50;;;0.40;81.27
42289;BME280;30230;47.520;19.016;2022-12-17T11:28:34;99227.41;;;0.12;82.64
42289;BME280;30230;47.520;19.016;2022-12-17T11:33:42;99275.97;;;0.43;82.37
42289;BME280;30230;47.520;19.016;2022-12-17T11:36:15;99275.53;;;0.28;81.99
42289;BME280;30230;47.520;19.016;2022-12-17T11:39:01;99286.47;;;0.54;82.78
42289;BME280;30230;47.520;19.016;2022-12-17T11:41:48;99279.19;;;0.75;82.02
42289;BME280;30230;47.520;19.016;2022-12-17T11:50:15;99285.47;;;0.45;80.88
42289;BME280;30230;47.520;19.016;2022-12-17T11:58:06;99298.97;;;0.13;81.73
42289;BME280;30230;47.520;19.016;2022-12-17T12:00:40;99297.47;;;0.11;80.24
42289;BME280;30230;47.520;19.016;2022-12-17T12:05:52;99303.88;;;0.08;80.82
42289;BME280;30230;47.520;19.016;2022-12-17T12:08:21;99302.56;;;-0.07;82.24
42289;BME280;30230;47.520;19.016;2022-12-17T12:13:32;99329.72;;;0.06;81.43
42289;BME280;30230;47.520;19.016;2022-12-17T12:19:18;99310.66;;;-0.09;82.39
42289;BME280;30230;47.520;19.016;2022-12-17T12:24:31;99329.28;;;0.01;82.16
42289;BME280;30230;47.520;19.016;2022-12-17T12:27:04;99329.91;;;-0.16;81.45
42289;BME280;30230;47.520;19.016;2022-12-17T12:34:53;99320.22;;;-0.27;82.00
42289;BME280;30230;47.520;19.016;2022-12-17T12:37:14;99324.41;;;0.06;80.82
42289;BME280;30230;47.520;19.016;2022-12-17T12:45:49;99308.34;;;-0.33;83.22
42289;BME280;30230;47.520;19.016;2022-12-17T12:51:02;99326.03;;;-0.12;82.13
42289;BME280;30230;47.520;19.016;2022-12-17T12:53:25;99339.84;;;-0.18;82.37
42289;BME280;30230;47.520;19.016;2022-12-17T12:55:44;99327.09;;;-0.24;82.62
42289;BME280;30230;47.520;19.016;2022-12-17T12:58:19;99323.41;;;-0.33;82.59
42289;BME280;30230;47.520;19.016;2022-12-17T13:03:19;99327.34;;;-0.28;83.70
42289;BME280;30230;47.520;19.016;2022-12-17T13:05:43;99346.56;;;-0.14;82.37
42289;BME280;30230;47.520;19.016;2022-12-17T13:07:43;99349.03;;;-0.22;82.24
42289;BME280;30230;47.520;19.016;2022-12-17T13:09:49;99339.59;;;-0.36;83.02
42289;BME280;30230;47.520;19.016;2022-12-17T13:14:10;99368.94;;;-0.38;82.09
42289;BME280;30230;47.520;19.016;2022-12-17T13:16:39;99368.19;;;-0.19;82.10
42289;BME280;30230;47.520;19.016;2022-12-17T13:18:41;99363.53;;;-0.27;81.13
42289;BME280;30230;47.520;19.016;2022-12-17T13:20:42;99384.72;;;-0.15;82.04